Time;durP1;ratioP1;P1;durP2;ratioP2;P2;SDS_P1;SDS_P2;PMS_P1;PMS_P2;Temp;Humidity;BMP_temperature;BMP_pressure;BME280_temperature;BME280_humidity;BME280_pressure;Samples;Min_cycle;Max_cycle;Signal;HPM_P1;HPM_P2
2023/08/21 00:01:24;;;;;;;1999.90;999.90;;;23.20;99.90;;;;;;5093701;28;20417;-68
2023/08/21 00:03:50;;;;;;;1999.90;999.90;;;23.30;99.90;;;;;;5091545;28;20406;-69
2023/08/21 00:06:17;;;;;;;1999.90;999.90;;;23.20;99.90;;;;;;5081749;28;20424;-69
2023/08/21 00:08:44;;;;;;;1999.90;999.90;;;23.00;99.90;;;;;;5093249;28;20416;-69
2023/08/21 00:11:10;;;;;;;1999.90;999.90;;;22.90;99.90;;;;;;5093385;28;20402;-68
2023/08/21 00:13:37;;;;;;;1999.90;999.90;;;23.00;99.90;;;;;;5093758;28;20421;-69
2023/08/21 00:16:05;;;;;;;1999.90;999.90;;;23.00;99.90;;;;;;5088344;28;20431;-68
2023/08/21 00:18:32;;;;;;;1999.90;999.90;;;23.00;99.90;;;;;;5079640;28;20495;-69
2023/08/21 00:20:59;;;;;;;1999.90;999.90;;;23.10;99.90;;;;;;5084802;28;20413;-69
2023/08/21 00:23:25;;;;;;;1999.90;999.90;;;23.00;99.90;;;;;;5093053;28;20906;-68
2023/08/21 00:25:52;;;;;;;1999.90;999.90;;;22.90;99.90;;;;;;5093096;28;20418;-68
2023/08/21 00:28:19;;;;;;;1999.90;999.90;;;23.00;99.90;;;;;;5087774;28;20429;-69
2023/08/21 00:30:45;;;;;;;1999.90;999.90;;;22.90;99.90;;;;;;5084447;28;20421;-68
2023/08/21 00:33:13;;;;;;;1999.90;999.90;;;22.90;99.90;;;;;;5093275;28;20451;-68
2023/08/21 00:35:40;;;;;;;1999.90;999.90;;;23.00;99.90;;;;;;5093144;28;20782;-67
2023/08/21 00:38:07;;;;;;;1999.90;999.90;;;23.00;99.90;;;;;;5093112;28;20439;-66
2023/08/21 00:40:33;;;;;;;1999.90;999.90;;;23.00;99.90;;;;;;5088083;28;20423;-67
2023/08/21 00:43:00;;;;;;;1999.90;999.90;;;23.00;99.90;;;;;;5084394;28;20914;-67
2023/08/21 00:45:27;;;;;;;1999.90;999.90;;;23.00;99.90;;;;;;5092858;28;20414;-66
2023/08/21 00:47:54;;;;;;;1999.90;999.90;;;22.90;99.90;;;;;;5092879;28;20433;-67
2023/08/21 00:50:22;;;;;;;1999.90;999.90;;;23.10;99.90;;;;;;5092766;28;20409;-67
2023/08/21 00:52:50;;;;;;;1999.90;999.90;;;23.20;99.90;;;;;;5085066;28;20430;-67
2023/08/21 00:55:17;;;;;;;1999.90;999.90;;;23.20;99.90;;;;;;5084499;28;20749;-67
2023/08/21 00:57:45;;;;;;;1999.90;999.90;;;23.00;99.90;;;;;;5092712;28;20413;-67
2023/08/21 01:00:13;;;;;;;1999.90;999.90;;;23.00;99.90;;;;;;5092583;28;20413;-67
2023/08/21 01:02:39;;;;;;;1999.90;999.90;;;22.90;99.90;;;;;;5092982;28;20422;-67
2023/08/21 01:05:08;;;;;;;1999.90;999.90;;;22.90;99.90;;;;;;5085610;28;20413;-67
2023/08/21 01:07:44;;;;;;;1999.90;999.90;;;22.80;99.90;;;;;;5083240;28;20428;-67
2023/08/21 01:10:18;;;;;;;1999.90;999.90;;;22.80;99.90;;;;;;5086961;28;20402;-67
2023/08/21 01:12:51;;;;;;;1999.90;999.90;;;22.80;99.90;;;;;;5092228;28;20398;-67
2023/08/21 01:15:19;;;;;;;1999.90;999.90;;;22.80;99.90;;;;;;5092382;28;20736;-68
2023/08/21 01:17:46;;;;;;;1999.90;999.90;;;22.80;99.90;;;;;;5083019;28;20426;-68
2023/08/21 01:20:14;;;;;;;1999.90;999.90;;;22.70;99.90;;;;;;5086788;28;20410;-67
2023/08/21 01:22:45;;;;;;;1999.90;999.90;;;22.70;99.90;;;;;;5080743;28;20422;-68
2023/08/21 01:25:15;;;;;;;1999.90;999.90;;;22.60;99.90;;;;;;5086440;28;20500;-68
2023/08/21 01:27:45;;;;;;;1999.90;999.90;;;22.60;99.90;;;;;;5091860;28;20410;-68
2023/08/21 01:30:13;;;;;;;1999.90;999.90;;;22.60;99.90;;;;;;5081491;28;20428;-67
2023/08/21 01:32:57;;;;;;;1999.90;999.90;;;22.50;99.90;;;;;;5090022;28;20417;-68
2023/08/21 01:35:25;;;;;;;1999.90;999.90;;;22.50;99.90;;;;;;5091920;28;20768;-68
2023/08/21 01:37:52;;;;;;;1999.90;999.90;;;22.60;99.90;;;;;;5091835;28;20417;-67
2023/08/21 01:40:22;;;;;;;1999.90;999.90;;;22.60;99.90;;;;;;5088798;28;20421;-68
2023/08/21 01:42:49;;;;;;;1999.90;999.90;;;22.50;99.90;;;;;;5082065;28;20409;-68
2023/08/21 01:45:16;;;;;;;1999.90;999.90;;;22.50;99.90;;;;;;5091919;28;20417;-67
2023/08/21 01:47:43;;;;;;;1999.90;999.90;;;22.40;99.90;;;;;;5091488;28;20420;-67
2023/08/21 01:50:10;;;;;;;1999.90;999.90;;;22.40;99.90;;;;;;5091471;28;20504;-67
2023/08/21 01:52:36;;;;;;;1999.90;999.90;;;22.40;99.90;;;;;;5087127;28;20450;-67
2023/08/21 01:55:04;;;;;;;1999.90;999.90;;;22.50;99.90;;;;;;5083201;28;20407;-69
2023/08/21 01:57:32;;;;;;;1999.90;999.90;;;22.50;99.90;;;;;;5091496;28;20503;-68
2023/08/21 01:59:59;;;;;;;1999.90;999.90;;;22.30;99.90;;;;;;5091549;28;20407;-67
2023/08/21 02:02:25;;;;;;;1999.90;999.90;;;22.40;99.90;;;;;;5089743;28;20406;-67
2023/08/21 02:04:52;;;;;;;1999.90;999.90;;;22.40;99.90;;;;;;5077163;28;20431;-68
2023/08/21 02:07:19;;;;;;;1999.90;999.90;;;22.30;99.90;;;;;;5086110;28;20772;-67
2023/08/21 02:09:45;;;;;;;1999.90;999.90;;;22.30;99.90;;;;;;5091393;28;20631;-68
2023/08/21 02:12:12;;;;;;;1999.90;999.90;;;22.10;99.90;;;;;;5091346;28;20401;-67
2023/08/21 02:14:40;;;;;;;1999.90;999.90;;;21.90;99.90;;;;;;5086339;28;20428;-67
2023/08/21 02:17:07;;;;;;;1999.90;999.90;;;21.80;99.90;;;;;;5082523;28;20409;-68
2023/08/21 02:19:33;;;;;;;1999.90;999.90;;;21.70;99.90;;;;;;5091016;28;20401;-68
2023/08/21 02:22:00;;;;;;;1999.90;999.90;;;21.70;99.90;;;;;;5090731;28;20997;-68
2023/08/21 02:24:27;;;;;;;1999.90;999.90;;;21.60;99.90;;;;;;5091254;28;20410;-67
2023/08/21 02:26:53;;;;;;;1999.90;999.90;;;21.50;99.90;;;;;;5086784;28;20434;-68
2023/08/21 02:29:20;;;;;;;1999.90;999.90;;;21.40;99.90;;;;;;5082409;28;20406;-67
2023/08/21 02:31:48;;;;;;;1999.90;999.90;;;21.50;99.90;;;;;;5090708;28;20409;-68
2023/08/21 02:34:15;;;;;;;1999.90;999.90;;;21.60;99.90;;;;;;5090843;28;20883;-67
2023/08/21 02:36:41;;;;;;;1999.90;999.90;;;21.40;99.90;;;;;;5091270;28;20402;-67
2023/08/21 02:39:08;;;;;;;1999.90;999.90;;;21.40;99.90;;;;;;5080823;28;20427;-67
2023/08/21 02:41:35;;;;;;;1999.90;999.90;;;21.50;99.90;;;;;;5078724;28;20816;-68
2023/08/21 02:44:02;;;;;;;1999.90;999.90;;;21.50;99.90;;;;;;5090738;28;20803;-67
2023/08/21 02:46:29;;;;;;;1999.90;999.90;;;21.30;99.90;;;;;;5090585;28;20413;-67
2023/08/21 02:48:57;;;;;;;1999.90;999.90;;;21.30;99.90;;;;;;5086260;28;20410;-68
2023/08/21 02:51:23;;;;;;;1999.90;999.90;;;21.20;99.90;;;;;;5078625;28;20799;-68
2023/08/21 02:53:50;;;;;;;1999.90;999.90;;;20.90;99.90;;;;;;5089258;28;20409;-67
2023/08/21 02:56:17;;;;;;;1999.90;999.90;;;21.00;99.90;;;;;;5090458;28;20767;-68
2023/08/21 02:58:43;;;;;;;1999.90;999.90;;;21.00;99.90;;;;;;5090512;28;20410;-67
2023/08/21 03:01:10;;;;;;;1999.90;999.90;;;21.10;99.90;;;;;;5083122;28;20909;-68
2023/08/21 03:03:37;;;;;;;1999.90;999.90;;;21.20;99.90;;;;;;5077713;28;20788;-68
2023/08/21 03:06:05;;;;;;;1999.90;999.90;;;21.30;99.90;;;;;;5090520;28;20418;-67
2023/08/21 03:08:32;;;;;;;1999.90;999.90;;;21.40;99.90;;;;;;5090438;28;20413;-68
2023/08/21 03:10:59;;;;;;;1999.90;999.90;;;21.40;99.90;;;;;;5090357;28;20902;-67
2023/08/21 03:13:25;;;;;;;1999.90;999.90;;;21.40;99.90;;;;;;5085048;28;20431;-67
2023/08/21 03:15:52;;;;;;;1999.90;999.90;;;21.40;99.90;;;;;;5081841;28;20883;-68
2023/08/21 03:18:19;;;;;;;1999.90;999.90;;;21.40;99.90;;;;;;5094715;28;20450;-67
2023/08/21 03:20:46;;;;;;;1999.90;999.90;;;21.40;99.90;;;;;;5094562;28;20409;-67
2023/08/21 03:23:14;;;;;;;1999.90;999.90;;;21.20;99.90;;;;;;5094437;28;20417;-67
2023/08/21 03:25:41;;;;;;;1999.90;999.90;;;20.90;99.90;;;;;;5091013;28;20421;-67
2023/08/21 03:28:08;;;;;;;1999.90;999.90;;;20.70;99.90;;;;;;5086560;28;20414;-67
2023/08/21 03:30:34;;;;;;;1999.90;999.90;;;20.50;99.90;;;;;;5094269;28;20406;-67
2023/08/21 03:33:01;;;;;;;1999.90;999.90;;;20.40;99.90;;;;;;5094326;28;20409;-67
2023/08/21 03:35:28;;;;;;;1999.90;999.90;;;20.30;99.90;;;;;;5094247;28;20437;-67
2023/08/21 03:37:54;;;;;;;1999.90;999.90;;;20.10;99.90;;;;;;5084588;28;20427;-67
2023/08/21 03:40:22;;;;;;;1999.90;999.90;;;20.10;99.90;;;;;;5085442;28;20488;-67
2023/08/21 03:42:49;;;;;;;1999.90;999.90;;;20.10;99.90;;;;;;5093603;28;20875;-67
2023/08/21 03:45:16;;;;;;;1999.90;999.90;;;20.10;99.90;;;;;;5094081;28;20445;-67
2023/08/21 03:47:43;;;;;;;1999.90;999.90;;;20.20;99.90;;;;;;5093541;28;20895;-67
2023/08/21 03:50:10;;;;;;;1999.90;999.90;;;20.30;99.90;;;;;;5084148;28;20433;-67
2023/08/21 03:52:37;;;;;;;1999.90;999.90;;;20.40;99.90;;;;;;5083756;28;20425;-67
2023/08/21 03:55:04;;;;;;;1999.90;999.90;;;20.40;99.90;;;;;;5085194;28;20412;-68
2023/08/21 03:57:32;;;;;;;1999.90;999.90;;;20.40;99.90;;;;;;5093354;28;20402;-67
2023/08/21 03:59:58;;;;;;;1999.90;999.90;;;20.40;99.90;;;;;;5093631;28;20767;-67
2023/08/21 04:02:25;;;;;;;1999.90;999.90;;;20.30;99.90;;;;;;5082985;28;20429;-68
2023/08/21 04:04:52;;;;;;;1999.90;999.90;;;20.30;99.90;;;;;;5075441;28;20415;-67
2023/08/21 04:07:18;;;;;;;1999.90;999.90;;;20.30;99.90;;;;;;5073090;28;20411;-68
2023/08/21 04:09:45;;;;;;;1999.90;999.90;;;20.10;99.90;;;;;;5072934;28;20415;-69
2023/08/21 04:12:12;;;;;;;1999.90;999.90;;;19.90;99.90;;;;;;5072777;28;20884;-69
2023/08/21 04:14:40;;;;;;;1999.90;999.90;;;19.70;99.90;;;;;;5079576;28;20891;-70
2023/08/21 04:17:07;;;;;;;1999.90;999.90;;;19.70;99.90;;;;;;5084617;28;20409;-69
2023/08/21 04:19:34;;;;;;;1999.90;999.90;;;19.70;99.90;;;;;;5093337;28;20405;-69
2023/08/21 04:22:00;;;;;;;1999.90;999.90;;;19.70;99.90;;;;;;5092949;28;20410;-69
2023/08/21 04:24:27;;;;;;;1999.90;999.90;;;19.60;99.90;;;;;;5093060;28;20906;-69
2023/08/21 04:26:54;;;;;;;1999.90;999.90;;;19.50;99.90;;;;;;5084571;28;20422;-69
2023/08/21 04:29:20;;;;;;;1999.90;999.90;;;19.50;99.90;;;;;;5085216;28;20412;-69
2023/08/21 04:31:48;;;;;;;1999.90;999.90;;;19.60;99.90;;;;;;5092949;28;20405;-69
2023/08/21 04:34:15;;;;;;;1999.90;999.90;;;19.60;99.90;;;;;;5093249;28;20438;-69
2023/08/21 04:36:42;;;;;;;1999.90;999.90;;;19.80;99.90;;;;;;5093089;28;20406;-69
2023/08/21 04:39:09;;;;;;;1999.90;999.90;;;19.90;99.90;;;;;;5083438;28;20789;-69
2023/08/21 04:41:36;;;;;;;1999.90;999.90;;;20.00;99.90;;;;;;5087990;28;20416;-67
2023/08/21 04:44:03;;;;;;;1999.90;999.90;;;20.10;99.90;;;;;;5093153;28;20767;-67
2023/08/21 04:46:29;;;;;;;1999.90;999.90;;;20.20;99.90;;;;;;5092673;28;20428;-67
2023/08/21 04:48:57;;;;;;;1999.90;999.90;;;20.30;99.90;;;;;;5092809;28;20406;-67
2023/08/21 04:51:24;;;;;;;1999.90;999.90;;;20.30;99.90;;;;;;5080993;28;20789;-68
2023/08/21 04:53:51;;;;;;;1999.90;999.90;;;20.30;99.90;;;;;;5089922;28;20414;-67
2023/08/21 04:56:17;;;;;;;1999.90;999.90;;;20.30;99.90;;;;;;5093074;28;20409;-67
2023/08/21 04:58:44;;;;;;;1999.90;999.90;;;20.20;99.90;;;;;;5092515;28;20867;-67
2023/08/21 05:01:12;;;;;;;1999.90;999.90;;;20.10;99.90;;;;;;5092647;28;20406;-70
2023/08/21 05:03:38;;;;;;;1999.90;999.90;;;20.10;99.90;;;;;;5080684;28;20431;-67
2023/08/21 05:06:06;;;;;;;1999.90;999.90;;;20.20;99.90;;;;;;5091119;28;20414;-68
2023/08/21 05:08:33;;;;;;;1999.90;999.90;;;20.40;99.90;;;;;;5092238;28;20405;-67
2023/08/21 05:11:00;;;;;;;1999.90;999.90;;;20.50;99.90;;;;;;5092433;28;20495;-67
2023/08/21 05:13:27;;;;;;;1999.90;999.90;;;20.60;99.90;;;;;;5091391;28;20483;-68
2023/08/21 05:15:54;;;;;;;1999.90;999.90;;;20.60;99.90;;;;;;5084450;28;20430;-68
2023/08/21 05:18:21;;;;;;;1999.90;999.90;;;20.70;99.90;;;;;;5084802;28;20442;-68
2023/08/21 05:20:48;;;;;;;1999.90;999.90;;;20.70;99.90;;;;;;5091983;28;20408;-68
2023/08/21 05:23:16;;;;;;;1999.90;999.90;;;21.00;99.90;;;;;;5092120;28;20433;-68
2023/08/21 05:25:44;;;;;;;1999.90;999.90;;;21.10;99.90;;;;;;5088531;28;21016;-67
2023/08/21 05:28:10;;;;;;;1999.90;999.90;;;21.10;99.90;;;;;;5113846;22;20435;-67
2023/08/21 05:30:37;;;;;;;1999.90;999.90;;;21.30;99.90;;;;;;5070434;28;20906;-68
2023/08/21 05:33:04;;;;;;;1999.90;999.90;;;21.50;99.90;;;;;;5081480;28;20408;-68
2023/08/21 05:35:34;;;;;;;1999.90;999.90;;;21.60;99.90;;;;;;5091904;28;20405;-69
2023/08/21 05:38:01;;;;;;;1999.90;999.90;;;22.00;99.90;;;;;;5091685;28;20433;-66
2023/08/21 05:40:29;;;;;;;1999.90;999.90;;;22.00;99.90;;;;;;5087461;28;20406;-67
2023/08/21 05:42:56;;;;;;;1999.90;999.90;;;22.20;99.90;;;;;;5080075;28;20412;-68
2023/08/21 05:45:23;;;;;;;1999.90;999.90;;;22.10;99.90;;;;;;5091782;28;20410;-67
2023/08/21 05:47:49;;;;;;;1999.90;999.90;;;22.50;99.90;;;;;;5091513;28;20422;-68
2023/08/21 05:50:16;;;;;;;1999.90;999.90;;;22.70;99.90;;;;;;5091414;28;20880;-68
2023/08/21 05:52:43;;;;;;;1999.90;999.90;;;22.70;99.90;;;;;;5078139;28;20427;-69
2023/08/21 05:55:10;;;;;;;1999.90;999.90;;;22.90;99.90;;;;;;5090473;28;20413;-67
2023/08/21 05:57:38;;;;;;;1999.90;999.90;;;23.30;99.90;;;;;;5083336;28;20978;-69
2023/08/21 06:00:08;;;;;;;1999.90;999.90;;;23.40;99.90;;;;;;5081136;28;20824;-68
2023/08/21 06:02:34;;;;;;;1999.90;999.90;;;23.70;99.90;;;;;;5091308;28;20837;-68
2023/08/21 06:05:02;;;;;;;1999.90;999.90;;;23.90;99.90;;;;;;5091343;28;20413;-68
2023/08/21 06:07:29;;;;;;;1999.90;999.90;;;24.00;99.90;;;;;;5085642;28;20428;-69
2023/08/21 06:09:56;;;;;;;1999.90;999.90;;;24.10;99.90;;;;;;5078386;28;20450;-69
2023/08/21 06:12:22;;;;;;;1999.90;999.90;;;24.00;99.90;;;;;;5091271;28;20417;-68
2023/08/21 06:14:51;;;;;;;1999.90;999.90;;;23.80;99.90;;;;;;5091226;28;20483;-68
2023/08/21 06:17:18;;;;;;;1999.90;999.90;;;23.90;99.90;;;;;;5091219;28;20406;-68
2023/08/21 06:19:45;;;;;;;1999.90;999.90;;;24.10;99.90;;;;;;5084037;28;20436;-68
2023/08/21 06:22:11;;;;;;;1999.90;999.90;;;24.10;99.90;;;;;;5082241;28;20920;-68
2023/08/21 06:24:38;;;;;;;1999.90;999.90;;;23.90;99.90;;;;;;5090812;28;20406;-68
2023/08/21 06:27:05;;;;;;;1999.90;999.90;;;23.90;99.90;;;;;;5090999;28;20421;-69
2023/08/21 06:29:32;;;;;;;1999.90;999.90;;;23.70;99.90;;;;;;5082205;28;20439;-68
2023/08/21 06:32:00;;;;;;;1999.90;999.90;;;23.80;99.90;;;;;;5077996;28;20933;-68
2023/08/21 06:34:26;;;;;;;1999.90;999.90;;;23.80;99.90;;;;;;5090916;28;20422;-68
2023/08/21 06:36:53;;;;;;;1999.90;999.90;;;23.80;99.90;;;;;;5090773;28;20405;-69
2023/08/21 06:39:20;;;;;;;1999.90;999.90;;;24.00;99.90;;;;;;5085520;28;20439;-68
2023/08/21 06:41:46;;;;;;;1999.90;999.90;;;23.90;99.90;;;;;;5082320;28;20871;-69
2023/08/21 06:44:13;;;;;;;1999.90;999.90;;;23.80;99.90;;;;;;5082283;28;20425;-69
2023/08/21 06:46:39;;;;;;;1999.90;999.90;;;23.90;99.90;;;;;;5090594;28;20405;-67
2023/08/21 06:49:08;;;;;;;1999.90;999.90;;;24.00;99.90;;;;;;5090656;28;20594;-67
2023/08/21 06:51:34;;;;;;;1999.90;999.90;;;24.00;99.90;;;;;;5078193;28;20953;-68
2023/08/21 06:54:01;;;;;;;1999.90;999.90;;;24.10;99.90;;;;;;5087755;28;20429;-66
2023/08/21 06:56:28;;;;;;;1999.90;999.90;;;24.20;99.90;;;;;;5090976;28;20402;-68
2023/08/21 06:58:55;;;;;;;1999.90;999.90;;;24.20;99.90;;;;;;5081535;28;20451;-68
2023/08/21 07:01:21;;;;;;;1999.90;999.90;;;24.30;99.90;;;;;;5072039;28;20854;-66
2023/08/21 07:03:50;;;;;;;1999.90;999.90;;;24.30;99.90;;;;;;5081295;28;21237;-67
2023/08/21 07:06:18;;;;;;;1999.90;999.90;;;24.40;99.90;;;;;;5090465;28;20451;-68
2023/08/21 07:08:44;;;;;;;1999.90;999.90;;;24.60;99.90;;;;;;5090500;28;20429;-68
2023/08/21 07:11:12;;;;;;;1999.90;999.90;;;24.60;99.90;;;;;;5083181;28;20469;-66
2023/08/21 07:13:39;;;;;;;1999.90;999.90;;;24.50;99.90;;;;;;5081455;28;20961;-67
2023/08/21 07:16:06;;;;;;;1999.90;999.90;;;24.70;99.90;;;;;;5090378;28;20428;-67
2023/08/21 07:18:34;;;;;;;1999.90;999.90;;;24.90;99.90;;;;;;5090154;28;20402;-68
2023/08/21 07:21:00;;;;;;;1999.90;999.90;;;24.90;99.90;;;;;;5080563;28;20440;-67
2023/08/21 07:23:28;;;;;;;1999.90;999.90;;;25.10;99.90;;;;;;5077322;28;20446;-68
2023/08/21 07:25:55;;;;;;;1999.90;999.90;;;25.10;99.90;;;;;;5078836;28;20432;-69
2023/08/21 07:28:22;;;;;;;1999.90;999.90;;;25.00;99.90;;;;;;5081524;28;20452;-68
2023/08/21 07:30:48;;;;;;;1999.90;999.90;;;25.10;99.90;;;;;;5090433;28;20410;-66
2023/08/21 07:33:15;;;;;;;1999.90;999.90;;;25.00;99.90;;;;;;5089785;28;20413;-68
2023/08/21 07:35:44;;;;;;;1999.90;999.90;;;25.10;99.90;;;;;;5084053;28;20440;-68
2023/08/21 07:38:10;;;;;;;1999.90;999.90;;;25.30;99.90;;;;;;5081394;28;20892;-66
2023/08/21 07:40:38;;;;;;;1999.90;999.90;;;25.50;99.90;;;;;;5090160;28;20436;-68
2023/08/21 07:43:05;;;;;;;1999.90;999.90;;;25.70;99.90;;;;;;5089924;28;20490;-68
2023/08/21 07:45:32;;;;;;;1999.90;999.90;;;25.90;99.90;;;;;;5083645;28;20433;-67
2023/08/21 07:47:58;;;;;;;1999.90;999.90;;;26.10;99.90;;;;;;5081092;28;20773;-66
2023/08/21 07:50:25;;;;;;;1999.90;999.90;;;26.10;99.90;;;;;;5090197;28;20410;-67
2023/08/21 07:52:52;;;;;;;1999.90;999.90;;;26.40;99.90;;;;;;5089920;28;20418;-68
2023/08/21 07:55:19;;;;;;;1999.90;999.90;;;26.20;99.90;;;;;;5084800;28;20435;-68
2023/08/21 07:57:47;;;;;;;1999.90;999.90;;;26.40;99.90;;;;;;5081346;28;20432;-67
2023/08/21 08:00:15;;;;;;;1999.90;999.90;;;26.70;99.90;;;;;;5089731;28;20453;-68
2023/08/21 08:02:43;;;;;;;1999.90;999.90;;;26.80;99.90;;;;;;5089599;28;20753;-67
2023/08/21 08:05:10;;;;;;;1999.90;999.90;;;26.90;99.90;;;;;;5077637;28;20840;-68
2023/08/21 08:07:36;;;;;;;1999.90;999.90;;;27.60;99.90;;;;;;5082700;28;20961;-68
2023/08/21 08:10:03;;;;;;;1999.90;999.90;;;27.90;99.90;;;;;;5089859;28;20414;-68
2023/08/21 08:12:30;;;;;;;1999.90;999.90;;;27.90;99.80;;;;;;5093249;28;20406;-67
2023/08/21 08:14:58;;;;;;;1999.90;999.90;;;27.90;99.90;;;;;;5088195;28;20444;-67
2023/08/21 08:17:24;;;;;;;1999.90;999.90;;;28.30;99.90;;;;;;5085136;28;20402;-68
2023/08/21 08:19:51;;;;;;;1999.90;999.90;;;28.30;99.90;;;;;;5093379;28;20401;-68
2023/08/21 08:22:18;;;;;;;1999.90;999.90;;;28.10;99.90;;;;;;5093077;28;20405;-68
2023/08/21 08:24:44;;;;;;;1999.90;999.90;;;28.00;99.90;;;;;;5088359;28;20429;-67
2023/08/21 08:27:11;;;;;;;1999.90;999.90;;;27.80;99.80;;;;;;5082950;28;20429;-67
2023/08/21 08:29:38;;;;;;;1999.90;999.90;;;27.30;99.90;;;;;;5085410;28;20414;-66
2023/08/21 08:32:07;;;;;;;1999.90;999.90;;;27.00;99.90;;;;;;5093354;28;20466;-68
2023/08/21 08:34:33;;;;;;;1999.90;999.90;;;26.80;99.90;;;;;;5093329;28;20504;-68
2023/08/21 08:37:00;;;;;;;1999.90;999.90;;;26.50;99.90;;;;;;5088320;28;20433;-68
2023/08/21 08:39:27;;;;;;;1999.90;999.90;;;26.10;99.90;;;;;;5084634;28;20402;-67
2023/08/21 08:41:59;;;;;;;1999.90;999.90;;;26.20;99.90;;;;;;5092802;28;20410;-67
2023/08/21 08:44:26;;;;;;;1999.90;999.90;;;26.30;99.90;;;;;;5093199;28;20414;-67
2023/08/21 08:46:53;;;;;;;1999.90;999.90;;;26.50;99.90;;;;;;5088577;28;20462;-68
2023/08/21 08:49:22;;;;;;;1999.90;999.90;;;26.60;99.90;;;;;;5084347;28;20426;-68
2023/08/21 08:51:50;;;;;;;1999.90;999.90;;;26.60;99.90;;;;;;5092523;28;20406;-67
2023/08/21 08:54:18;;;;;;;1999.90;999.90;;;26.70;99.90;;;;;;5092764;28;20421;-68
2023/08/21 08:56:45;;;;;;;1999.90;999.90;;;27.10;99.90;;;;;;5088783;28;20426;-67
2023/08/21 08:59:14;;;;;;;1999.90;999.90;;;27.20;99.90;;;;;;5084279;28;20413;-65
2023/08/21 09:01:41;;;;;;;1999.90;999.90;;;27.10;99.90;;;;;;5092567;28;20413;-66
2023/08/21 09:04:08;;;;;;;1999.90;999.90;;;26.80;99.90;;;;;;5093018;28;20417;-67
2023/08/21 09:06:36;;;;;;;1999.90;999.90;;;26.70;99.90;;;;;;5089607;28;20440;-68
2023/08/21 09:09:03;;;;;;;1999.90;999.90;;;26.60;99.90;;;;;;5083693;28;20426;-67
2023/08/21 09:11:30;;;;;;;1999.90;999.90;;;26.70;99.90;;;;;;5092231;28;20410;-68
2023/08/21 09:13:57;;;;;;;1999.90;999.90;;;27.00;99.90;;;;;;5092320;28;20416;-67
2023/08/21 09:16:25;;;;;;;1999.90;999.90;;;27.10;99.90;;;;;;5071818;28;20998;-67
2023/08/21 09:18:54;;;;;;;1999.90;999.90;;;27.10;99.90;;;;;;5080218;28;20415;-67
2023/08/21 09:21:23;;;;;;;1999.90;999.90;;;27.30;99.90;;;;;;5089775;28;20882;-67
2023/08/21 09:23:58;;;;;;;1999.90;999.90;;;27.50;99.90;;;;;;5092021;28;20434;-68
2023/08/21 09:26:25;;;;;;;1999.90;999.90;;;28.00;99.90;;;;;;5081180;28;20425;-68
2023/08/21 09:28:53;;;;;;;1999.90;999.90;;;28.00;98.70;;;;;;5085512;28;20440;-66
2023/08/21 09:31:23;;;;;;;1999.90;999.90;;;28.10;99.90;;;;;;5091792;28;20418;-67
2023/08/21 09:33:56;;;;;;;1999.90;999.90;;;28.30;98.30;;;;;;5092024;28;20401;-68
2023/08/21 09:36:24;;;;;;;1999.90;999.90;;;27.70;99.90;;;;;;5081709;28;20462;-67
2023/08/21 09:38:52;;;;;;;1999.90;999.90;;;27.80;99.90;;;;;;5078858;28;20545;-67
2023/08/21 09:41:20;;;;;;;1999.90;999.90;;;28.20;99.90;;;;;;5088845;28;20406;-67
2023/08/21 09:43:47;;;;;;;1999.90;999.90;;;28.40;99.30;;;;;;5091692;28;20891;-68
2023/08/21 09:46:16;;;;;;;1999.90;999.90;;;28.00;99.00;;;;;;5085532;28;20943;-67
2023/08/21 09:48:44;;;;;;;1999.90;999.90;;;27.90;99.60;;;;;;5083477;28;20455;-67
2023/08/21 09:51:11;;;;;;;1999.90;999.90;;;28.00;99.40;;;;;;5091729;28;20406;-66
2023/08/21 09:53:38;;;;;;;1999.90;999.90;;;28.40;99.00;;;;;;5091541;28;20418;-67
2023/08/21 09:56:07;;;;;;;1999.90;999.90;;;28.10;98.10;;;;;;5086808;28;20452;-68
2023/08/21 09:58:35;;;;;;;1999.90;999.90;;;28.40;98.90;;;;;;5078547;28;20528;-67
2023/08/21 10:01:11;;;;;;;1999.90;999.90;;;29.00;98.10;;;;;;5085999;28;20919;-68
2023/08/21 10:03:39;;;;;;;1999.90;999.90;;;29.00;97.60;;;;;;5091216;28;20936;-67
2023/08/21 10:06:07;;;;;;;1999.90;999.90;;;29.00;98.30;;;;;;5091473;28;20430;-67
2023/08/21 10:08:38;;;;;;;1999.90;999.90;;;29.10;97.90;;;;;;5084405;28;20449;-68
2023/08/21 10:11:07;;;;;;;1999.90;999.90;;;29.10;98.10;;;;;;5086293;28;20444;-67
2023/08/21 10:13:35;;;;;;;1999.90;999.90;;;29.20;97.20;;;;;;5090969;28;20402;-69
2023/08/21 10:16:02;;;;;;;1999.90;999.90;;;29.00;97.50;;;;;;5091374;28;20406;-69
2023/08/21 10:18:33;;;;;;;1999.90;999.90;;;28.80;97.60;;;;;;5085396;28;20428;-67
2023/08/21 10:21:12;;;;;;;1999.90;999.90;;;28.40;97.90;;;;;;5085237;28;20524;-68
2023/08/21 10:23:40;;;;;;;1999.90;999.90;;;28.00;98.90;;;;;;5090849;28;20398;-67
2023/08/21 10:26:10;;;;;;;1999.90;999.90;;;28.00;98.50;;;;;;5090372;28;20402;-67
2023/08/21 10:28:49;;;;;;;1999.90;999.90;;;27.90;98.20;;;;;;5083275;28;20841;-68
2023/08/21 10:31:32;;;;;;;1999.90;999.90;;;27.70;98.70;;;;;;5086937;28;20406;-67
2023/08/21 10:34:01;;;;;;;1999.90;999.90;;;27.30;99.90;;;;;;5090770;28;20402;-67
2023/08/21 10:37:04;;;;;;;1999.90;999.90;;;27.20;99.90;;;;;;5090746;28;20414;-69
2023/08/21 10:39:33;;;;;;;1999.90;999.90;;;27.30;99.90;;;;;;5079617;28;20437;-68
2023/08/21 10:42:03;;;;;;;1999.90;999.90;;;27.30;99.90;;;;;;5090499;28;20511;-67
2023/08/21 10:44:37;;;;;;;1999.90;999.90;;;27.30;99.90;;;;;;5090854;28;20900;-68
2023/08/21 10:47:17;;;;;;;1999.90;999.90;;;27.10;99.90;;;;;;5090482;28;20413;-66
2023/08/21 10:49:46;;;;;;;1999.90;999.90;;;27.20;99.90;;;;;;5076762;28;20427;-68
2023/08/21 10:52:13;;;;;;;1999.90;999.90;;;27.30;99.90;;;;;;5086062;28;20487;-68
2023/08/21 10:54:51;;;;;;;1999.90;999.90;;;27.70;99.90;;;;;;5090551;28;20444;-67
2023/08/21 10:57:19;;;;;;;1999.90;999.90;;;28.10;99.20;;;;;;5090631;28;20910;-67
2023/08/21 10:59:57;;;;;;;1999.90;999.90;;;28.30;99.90;;;;;;5071127;28;20425;-68
2023/08/21 11:02:25;;;;;;;1999.90;999.90;;;28.70;99.10;;;;;;5079007;28;20411;-68
2023/08/21 11:04:52;;;;;;;1999.90;999.90;;;29.00;97.50;;;;;;5090490;28;20898;-68
2023/08/21 11:07:19;;;;;;;1999.90;999.90;;;28.90;97.40;;;;;;5090482;28;20410;-68
2023/08/21 11:09:46;;;;;;;1999.90;999.90;;;28.80;98.00;;;;;;5089070;28;20433;-67
2023/08/21 11:12:14;;;;;;;1999.90;999.90;;;28.80;98.60;;;;;;5077624;28;20439;-67
2023/08/21 11:14:42;;;;;;;1999.90;999.90;;;28.90;97.80;;;;;;5086011;28;20417;-66
2023/08/21 11:17:10;;;;;;;1999.90;999.90;;;28.70;97.80;;;;;;5078321;28;20404;-67
2023/08/21 11:19:38;;;;;;;1999.90;999.90;;;28.50;98.00;;;;;;5088911;28;20484;-68
2023/08/21 11:22:05;;;;;;;1999.90;999.90;;;28.30;98.10;;;;;;5078653;28;20809;-69
2023/08/21 11:24:43;;;;;;;1999.90;999.90;;;28.30;99.60;;;;;;5088086;28;20784;-69
2023/08/21 11:27:12;;;;;;;1999.90;999.90;;;28.30;98.60;;;;;;5090365;28;20493;-68
2023/08/21 11:29:40;;;;;;;1999.90;999.90;;;28.50;99.90;;;;;;5096602;22;20433;-69
2023/08/21 11:32:15;;;;;;;1999.90;999.90;;;28.80;98.30;;;;;;5054833;28;20429;-72
2023/08/21 11:34:44;;;;;;;1999.90;999.90;;;29.00;97.40;;;;;;5049570;28;20776;-71
2023/08/21 11:37:11;;;;;;;1999.90;999.90;;;29.00;98.40;;;;;;5050310;28;20500;-68
2023/08/21 11:39:42;;;;;;;1999.90;999.90;;;29.10;98.10;;;;;;5054149;28;20408;-70
2023/08/21 11:42:13;;;;;;;1999.90;999.90;;;29.40;97.30;;;;;;5042839;28;20434;-67
2023/08/21 11:44:45;;;;;;;1999.90;999.90;;;29.60;97.20;;;;;;5044591;28;20443;-69
2023/08/21 11:47:14;;;;;;;1999.90;999.90;;;29.90;95.60;;;;;;5054038;28;20439;-70
2023/08/21 11:49:42;;;;;;;1999.90;999.90;;;29.90;96.20;;;;;;5053767;28;20452;-67
2023/08/21 11:52:09;;;;;;;1999.90;999.90;;;30.10;95.40;;;;;;5040269;28;20441;-69
2023/08/21 11:54:36;;;;;;;1999.90;999.90;;;30.10;95.70;;;;;;5043666;28;20444;-70
2023/08/21 11:57:07;;;;;;;1999.90;999.90;;;30.10;96.10;;;;;;5054190;28;20405;-70
2023/08/21 11:59:34;;;;;;;1999.90;999.90;;;30.40;95.30;;;;;;5053671;28;20412;-69
2023/08/21 12:02:01;;;;;;;1999.90;999.90;;;30.60;94.40;;;;;;5044254;28;20442;-70